Time;durP1;ratioP1;P1;durP2;ratioP2;P2;SDS_P1;SDS_P2;PMS_P1;PMS_P2;Temp;Humidity;BMP_temperature;BMP_pressure;BME280_temperature;BME280_humidity;BME280_pressure;Samples;Min_cycle;Max_cycle;Signal;HPM_P1;HPM_P2
2023/05/31 00:02:06;;;;;;;6.10;5.60;;;22.20;49.90;23.00;101571.00;;;;5010945;28;20259;-50
2023/05/31 00:04:32;;;;;;;5.80;5.20;;;22.20;50.00;22.90;101570.00;;;;5010801;28;20179;-50
2023/05/31 00:06:58;;;;;;;5.77;5.20;;;22.20;50.00;22.90;101571.00;;;;5010716;28;20676;-50
2023/05/31 00:09:23;;;;;;;5.83;5.23;;;22.20;50.00;22.90;101582.00;;;;5010881;28;20192;-50
2023/05/31 00:11:49;;;;;;;5.90;5.30;;;22.20;50.10;22.80;101581.00;;;;5009494;28;20184;-51
2023/05/31 00:14:15;;;;;;;6.47;5.70;;;22.10;50.00;22.90;101582.00;;;;5010786;28;20281;-50
2023/05/31 00:16:41;;;;;;;6.00;5.30;;;22.20;50.10;22.90;101579.00;;;;5010868;28;20598;-50
2023/05/31 00:19:06;;;;;;;5.87;5.27;;;22.10;50.00;22.90;101593.00;;;;5010757;28;20230;-52
2023/05/31 00:21:32;;;;;;;5.90;4.83;;;22.10;50.10;22.80;101585.00;;;;5010721;28;20180;-51
2023/05/31 00:23:58;;;;;;;6.07;5.17;;;22.10;50.10;22.80;101583.00;;;;5010514;28;20484;-52
2023/05/31 00:26:23;;;;;;;5.70;5.00;;;22.10;50.10;22.80;101579.00;;;;5014230;28;20236;-51
2023/05/31 00:28:49;;;;;;;5.40;4.90;;;22.10;50.20;22.80;101571.00;;;;5014635;28;20199;-51
2023/05/31 00:31:15;;;;;;;6.00;5.40;;;22.10;50.20;22.80;101578.00;;;;5010744;28;20175;-50
2023/05/31 00:33:43;;;;;;;5.67;5.07;;;22.10;50.20;22.80;101568.00;;;;5010893;28;20218;-50
2023/05/31 00:36:09;;;;;;;5.80;5.20;;;22.00;50.10;22.70;101584.00;;;;5010274;28;20258;-51
2023/05/31 00:38:35;;;;;;;5.73;5.13;;;22.10;50.30;22.70;101577.00;;;;5010550;28;20651;-51
2023/05/31 00:41:01;;;;;;;5.50;5.00;;;22.10;50.30;22.70;101585.00;;;;5011268;28;20187;-51
2023/05/31 00:43:26;;;;;;;5.83;5.33;;;22.10;50.30;22.70;101584.00;;;;5019752;28;20195;-50
2023/05/31 00:45:52;;;;;;;6.00;5.40;;;22.00;50.30;22.70;101582.00;;;;5009319;28;20179;-50
2023/05/31 00:48:18;;;;;;;7.20;5.67;;;22.00;50.50;22.40;101579.00;;;;5008988;28;20176;-50
2023/05/31 00:50:44;;;;;;;5.50;5.00;;;22.00;50.50;22.60;101581.00;;;;4992517;28;20195;-50
2023/05/31 00:53:09;;;;;;;6.23;5.57;;;22.00;50.40;22.60;101581.00;;;;5010382;28;20180;-50
2023/05/31 00:55:35;;;;;;;5.30;4.80;;;21.90;50.40;22.60;101590.00;;;;5008866;28;20180;-52
2023/05/31 00:58:01;;;;;;;5.20;4.70;;;21.90;50.50;22.60;101584.00;;;;5010460;28;20604;-51
2023/05/31 01:00:27;;;;;;;5.83;5.17;;;21.90;50.50;22.60;101582.00;;;;5008998;28;20199;-51
2023/05/31 01:02:53;;;;;;;5.60;5.00;;;21.90;50.50;22.60;101582.00;;;;5009000;28;20647;-51
2023/05/31 01:05:19;;;;;;;6.47;5.23;;;21.90;50.60;22.60;101576.00;;;;5009623;28;20176;-50
2023/05/31 01:07:45;;;;;;;5.50;5.00;;;21.90;50.60;22.50;101513.00;;;;4993082;28;20218;-50
2023/05/31 01:10:10;;;;;;;5.13;4.63;;;21.90;50.50;22.50;101578.00;;;;5012086;28;20823;-49
2023/05/31 01:13:10;;;;;;;6.47;5.07;;;21.90;50.50;22.50;101581.00;;;;5009577;28;20175;-51
2023/05/31 01:15:44;;;;;;;5.17;4.67;;;21.90;50.50;22.50;101577.00;;;;5008599;28;20176;-50
2023/05/31 01:18:19;;;;;;;5.73;5.13;;;21.90;50.50;22.50;101573.00;;;;5008310;28;20807;-51
2023/05/31 01:20:49;;;;;;;5.40;4.90;;;21.80;50.50;22.50;101574.00;;;;4977061;28;20582;-50
2023/05/31 01:23:17;;;;;;;5.50;5.00;;;21.90;50.60;22.50;101578.00;;;;5009534;28;20799;-49
2023/05/31 01:26:04;;;;;;;5.73;5.10;;;21.90;50.50;22.20;101506.00;;;;5009184;28;20237;-50
2023/05/31 01:28:30;;;;;;;6.47;5.20;;;21.90;50.50;22.40;101579.00;;;;5002435;28;20175;-50
2023/05/31 01:31:01;;;;;;;6.07;5.20;;;21.80;50.50;22.40;101571.00;;;;5008170;28;20176;-51
2023/05/31 01:33:27;;;;;;;5.50;5.00;;;21.80;50.50;22.40;101571.00;;;;4992428;28;20199;-50
2023/05/31 01:35:53;;;;;;;5.40;4.90;;;21.80;50.50;22.40;101575.00;;;;5008080;28;20540;-51
2023/05/31 01:38:18;;;;;;;5.57;4.70;;;21.80;50.50;22.30;101578.00;;;;5009126;28;20176;-51
2023/05/31 01:40:44;;;;;;;5.43;4.90;;;21.80;50.50;22.30;101571.00;;;;5009224;28;20230;-50
2023/05/31 01:43:10;;;;;;;5.93;5.33;;;21.80;50.90;22.30;101574.00;;;;4991647;28;20203;-51
2023/05/31 01:45:36;;;;;;;5.20;4.70;;;21.80;50.60;22.30;101569.00;;;;5007823;28;20777;-51
2023/05/31 01:48:05;;;;;;;5.57;4.67;;;21.70;50.60;22.30;101576.00;;;;5007724;28;20293;-50
2023/05/31 01:50:32;;;;;;;5.13;4.60;;;21.70;50.60;22.30;101576.00;;;;5008986;28;20207;-51
2023/05/31 01:52:58;;;;;;;5.40;4.90;;;21.70;50.60;22.30;101568.00;;;;5007680;28;20302;-51
2023/05/31 01:55:24;;;;;;;5.23;4.73;;;21.70;50.60;22.30;101565.00;;;;5007526;28;20680;-51
2023/05/31 01:57:49;;;;;;;4.90;4.50;;;21.70;50.60;22.20;101566.00;;;;5009062;28;20203;-50
2023/05/31 02:00:15;;;;;;;6.23;5.00;;;21.60;50.50;22.20;101575.00;;;;4975076;28;20247;-50
2023/05/31 02:02:44;;;;;;;5.10;4.60;;;21.70;50.60;22.20;101567.00;;;;4975110;28;20179;-50
2023/05/31 02:05:12;;;;;;;5.73;4.80;;;21.70;50.70;22.20;101577.00;;;;5008451;28;20567;-51
2023/05/31 02:07:41;;;;;;;5.33;4.80;;;21.70;50.60;22.20;101576.00;;;;5008526;28;20209;-50
2023/05/31 02:10:08;;;;;;;5.63;4.90;;;21.60;50.50;22.10;101564.00;;;;5008571;28;20203;-50
2023/05/31 02:12:33;;;;;;;5.60;4.97;;;21.60;50.60;22.10;101570.00;;;;5008393;28;20176;-51
2023/05/31 02:14:59;;;;;;;5.50;4.90;;;21.60;50.60;22.10;101571.00;;;;5008490;28;20293;-51
2023/05/31 02:17:25;;;;;;;5.50;5.00;;;21.60;50.70;22.10;101572.00;;;;5008334;28;20187;-50
2023/05/31 02:19:52;;;;;;;5.40;4.90;;;21.60;50.70;22.10;101569.00;;;;5008001;28;20286;-51
2023/05/31 02:22:21;;;;;;;5.90;4.83;;;21.50;50.70;22.00;101562.00;;;;5008906;28;20180;-51
2023/05/31 02:24:47;;;;;;;5.10;4.60;;;21.50;50.70;22.00;101556.00;;;;5010311;28;20186;-50
2023/05/31 02:27:13;;;;;;;6.03;5.23;;;21.50;50.70;22.00;101556.00;;;;5015825;28;20199;-51
2023/05/31 02:29:39;;;;;;;8.50;4.97;;;21.50;50.70;22.00;101552.00;;;;5009152;28;20229;-51
2023/05/31 02:32:05;;;;;;;5.60;5.10;;;21.50;50.80;22.00;101555.00;;;;5008533;28;20191;-51
2023/05/31 02:34:31;;;;;;;5.30;4.80;;;21.50;50.70;21.90;101560.00;;;;5008732;28;20198;-50
2023/05/31 02:36:57;;;;;;;5.13;4.63;;;21.50;50.80;21.90;101562.00;;;;5008598;28;20183;-51
2023/05/31 02:39:24;;;;;;;5.20;4.70;;;21.40;50.80;21.90;101572.00;;;;5009313;28;20228;-51
2023/05/31 02:41:50;;;;;;;5.30;4.73;;;21.40;50.80;21.90;101566.00;;;;5010015;28;20180;-50
2023/05/31 02:44:16;;;;;;;5.47;4.57;;;21.40;50.80;21.90;101574.00;;;;5008365;28;20551;-50
2023/05/31 02:46:41;;;;;;;5.43;4.40;;;21.40;50.90;21.90;101572.00;;;;5008025;28;20218;-50
2023/05/31 02:49:07;;;;;;;5.13;4.43;;;21.40;50.90;21.80;101570.00;;;;5008106;28;20222;-50
2023/05/31 02:51:33;;;;;;;5.67;4.70;;;21.30;50.90;21.80;101564.00;;;;5008168;28;20224;-50
2023/05/31 02:53:59;;;;;;;5.13;4.30;;;21.30;50.90;21.80;101562.00;;;;5008055;28;20206;-51
2023/05/31 02:56:26;;;;;;;5.77;4.30;;;21.30;50.90;21.80;101560.00;;;;5008277;28;20180;-49
2023/05/31 02:58:52;;;;;;;4.90;4.23;;;21.30;51.00;21.80;101560.00;;;;5008237;28;20226;-51
2023/05/31 03:01:17;;;;;;;4.73;4.23;;;21.30;51.00;21.80;101564.00;;;;5007897;28;20224;-51
2023/05/31 03:03:43;;;;;;;5.30;4.20;;;21.30;51.00;21.70;101558.00;;;;5007955;28;20181;-51
2023/05/31 03:06:09;;;;;;;5.23;4.43;;;21.30;51.00;21.70;101556.00;;;;5007977;28;20423;-51
2023/05/31 03:08:34;;;;;;;5.73;4.40;;;21.30;51.00;21.70;101548.00;;;;5008384;28;20226;-51
2023/05/31 03:11:00;;;;;;;6.40;4.83;;;21.20;51.10;21.70;101558.00;;;;5008152;28;20254;-50
2023/05/31 03:13:26;;;;;;;5.00;4.50;;;21.20;51.20;21.60;101556.00;;;;5001192;28;20856;-50
2023/05/31 03:15:52;;;;;;;5.27;4.63;;;21.20;51.20;21.60;101546.00;;;;5007172;28;20279;-50
2023/05/31 03:18:17;;;;;;;5.37;4.63;;;21.20;51.20;21.60;101545.00;;;;5007404;28;20189;-54
2023/05/31 03:20:43;;;;;;;4.80;4.37;;;21.20;51.20;21.50;101544.00;;;;5012573;28;20186;-50
2023/05/31 03:23:09;;;;;;;4.63;4.10;;;21.10;51.10;21.60;101551.00;;;;5006009;28;20519;-51
2023/05/31 03:25:35;;;;;;;5.73;4.10;;;21.10;51.10;21.50;101549.00;;;;5007189;28;20553;-51
2023/05/31 03:28:02;;;;;;;5.33;4.20;;;21.10;51.10;21.50;101553.00;;;;5006859;28;20222;-50
2023/05/31 03:30:28;;;;;;;6.67;4.33;;;21.10;51.30;21.50;101554.00;;;;5010351;28;20198;-54
2023/05/31 03:32:53;;;;;;;4.47;3.97;;;21.10;51.10;21.50;101553.00;;;;5012577;28;20602;-54
2023/05/31 03:35:19;;;;;;;6.07;4.13;;;21.10;51.10;21.50;101554.00;;;;5011063;28;20186;-54
2023/05/31 03:37:45;;;;;;;5.60;3.90;;;21.10;51.10;21.50;101552.00;;;;5011124;28;20182;-54
2023/05/31 03:40:11;;;;;;;6.77;4.17;;;21.00;51.00;21.50;101559.00;;;;5010885;28;20203;-54
2023/05/31 03:42:37;;;;;;;5.27;4.00;;;21.10;50.80;21.50;101550.00;;;;5010499;28;20265;-54
2023/05/31 03:45:03;;;;;;;5.23;3.90;;;21.10;50.70;21.50;101554.00;;;;5010891;28;20205;-54
2023/05/31 03:47:29;;;;;;;4.30;3.80;;;21.10;50.80;21.50;101555.00;;;;5012156;28;20222;-54
2023/05/31 03:49:55;;;;;;;4.30;3.70;;;21.00;50.60;21.50;101556.00;;;;5011084;28;20282;-55
2023/05/31 03:52:21;;;;;;;4.17;3.77;;;21.10;50.60;21.50;101554.00;;;;5011999;28;20179;-56
2023/05/31 03:54:47;;;;;;;4.77;3.60;;;21.00;50.40;21.50;101556.00;;;;5010665;28;20183;-56
2023/05/31 03:57:13;;;;;;;5.00;3.77;;;21.00;50.30;21.40;101549.00;;;;5011398;28;20183;-54
2023/05/31 03:59:38;;;;;;;4.23;3.67;;;21.00;50.40;21.40;101550.00;;;;5012254;28;20268;-54
2023/05/31 04:02:04;;;;;;;5.53;3.50;;;21.00;50.30;21.40;101544.00;;;;5011375;28;20210;-56
2023/05/31 04:04:30;;;;;;;3.97;3.20;;;21.00;50.40;21.40;101541.00;;;;5012006;28;20179;-55
2023/05/31 04:06:56;;;;;;;5.33;3.80;;;21.00;50.30;21.40;101544.00;;;;5012068;28;20291;-56
2023/05/31 04:09:23;;;;;;;3.70;3.40;;;21.00;50.40;21.40;101539.00;;;;5011959;28;20206;-55
2023/05/31 04:11:49;;;;;;;5.07;3.70;;;21.00;50.40;21.40;101541.00;;;;5010822;28;20736;-56
2023/05/31 04:14:15;;;;;;;3.70;3.17;;;21.00;50.30;21.40;101540.00;;;;5011072;28;20183;-56
2023/05/31 04:16:40;;;;;;;5.23;3.43;;;20.90;50.40;21.40;101533.00;;;;5011127;28;20182;-55
2023/05/31 04:19:06;;;;;;;4.07;3.67;;;20.90;50.40;21.40;101550.00;;;;5011835;28;20662;-56
2023/05/31 04:21:32;;;;;;;4.00;3.60;;;20.90;50.50;21.30;101546.00;;;;5011574;28;20189;-55
2023/05/31 04:23:58;;;;;;;4.30;3.27;;;20.90;50.70;21.30;101545.00;;;;5013196;28;20246;-55
2023/05/31 04:26:25;;;;;;;4.53;3.40;;;20.80;50.60;21.30;101544.00;;;;5014181;28;20201;-55
2023/05/31 04:28:54;;;;;;;3.60;3.30;;;20.80;50.60;21.10;101551.00;;;;5012013;28;20752;-55
2023/05/31 04:31:20;;;;;;;3.83;3.40;;;20.80;50.60;21.30;101555.00;;;;5011578;28;20670;-55
2023/05/31 04:33:46;;;;;;;3.90;3.50;;;20.80;50.70;21.30;101561.00;;;;4994209;28;20725;-54
2023/05/31 04:36:12;;;;;;;3.60;3.30;;;20.80;50.90;21.30;101562.00;;;;5010281;28;20595;-54
2023/05/31 04:38:39;;;;;;;3.77;3.47;;;20.70;50.80;21.30;101556.00;;;;5012242;28;20287;-54
2023/05/31 04:41:05;;;;;;;4.10;3.40;;;20.80;50.90;21.30;101564.00;;;;5010631;28;20181;-54
2023/05/31 04:43:31;;;;;;;4.67;3.43;;;20.70;50.80;21.30;101546.00;;;;5010232;28;20180;-55
2023/05/31 04:46:00;;;;;;;3.60;3.30;;;20.70;50.90;21.30;101550.00;;;;5010946;28;20184;-55
2023/05/31 04:48:27;;;;;;;4.20;3.20;;;20.70;50.80;21.30;101550.00;;;;5011316;28;20182;-55
2023/05/31 04:50:54;;;;;;;4.40;3.50;;;20.70;51.10;21.30;101558.00;;;;5012390;28;20190;-54
2023/05/31 04:53:22;;;;;;;3.87;3.47;;;20.70;51.00;21.30;101549.00;;;;5009556;28;20175;-54
2023/05/31 04:55:48;;;;;;;4.10;3.70;;;20.70;51.10;21.30;101552.00;;;;5005374;28;20262;-55
2023/05/31 04:58:13;;;;;;;4.03;3.27;;;20.70;51.10;21.30;101559.00;;;;5009545;28;20277;-55
2023/05/31 05:00:39;;;;;;;3.50;3.20;;;20.60;51.10;21.30;101560.00;;;;5010952;28;20279;-56
2023/05/31 05:03:05;;;;;;;3.57;3.27;;;20.70;51.30;21.30;101569.00;;;;5010009;28;20549;-55
2023/05/31 05:05:31;;;;;;;3.43;3.13;;;20.60;51.20;21.30;101569.00;;;;5010161;28;20567;-56
2023/05/31 05:07:57;;;;;;;4.53;3.20;;;20.60;51.20;21.30;101563.00;;;;5010260;28;20207;-55
2023/05/31 05:10:22;;;;;;;3.47;3.17;;;20.60;51.20;21.30;101568.00;;;;5010285;28;20207;-56
2023/05/31 05:12:48;;;;;;;4.10;3.60;;;20.60;51.20;21.30;101568.00;;;;5009344;28;20183;-55
2023/05/31 05:15:14;;;;;;;4.37;3.43;;;20.60;51.20;21.30;101542.00;;;;5010079;28;20189;-55
2023/05/31 05:17:41;;;;;;;3.50;2.90;;;20.60;51.20;21.30;101577.00;;;;5009135;28;20185;-56
2023/05/31 05:20:10;;;;;;;3.40;3.10;;;20.60;51.20;21.30;101577.00;;;;4993326;28;20209;-55
2023/05/31 05:22:36;;;;;;;3.30;3.00;;;20.60;51.20;21.30;101573.00;;;;5010674;28;20184;-55
2023/05/31 05:25:02;;;;;;;3.63;3.33;;;20.60;51.10;21.30;101574.00;;;;5009901;28;20178;-56
2023/05/31 05:27:28;;;;;;;3.50;3.20;;;20.60;51.10;21.30;101571.00;;;;5010469;28;20206;-56
2023/05/31 05:29:54;;;;;;;3.67;3.13;;;20.60;51.00;21.30;101572.00;;;;5010136;28;20202;-56
2023/05/31 05:32:19;;;;;;;3.80;3.20;;;20.60;51.00;21.30;101583.00;;;;5010623;28;20175;-55
2023/05/31 05:34:45;;;;;;;3.30;3.00;;;20.60;51.00;21.30;101583.00;;;;5011085;28;20183;-56
2023/05/31 05:37:11;;;;;;;4.37;3.23;;;20.60;51.00;21.30;101578.00;;;;5010061;28;20177;-56
2023/05/31 05:39:37;;;;;;;3.20;2.90;;;20.60;50.90;21.30;101587.00;;;;5009816;28;20760;-54
2023/05/31 05:42:03;;;;;;;3.40;2.80;;;20.60;51.00;21.30;101581.00;;;;5010010;28;20183;-56
2023/05/31 05:44:29;;;;;;;3.20;2.90;;;20.60;51.10;21.30;101587.00;;;;5009989;28;20654;-54
2023/05/31 05:46:56;;;;;;;3.53;3.10;;;20.60;51.00;21.30;101590.00;;;;5009060;28;20218;-56
2023/05/31 05:49:21;;;;;;;3.50;3.20;;;20.60;51.00;21.30;101582.00;;;;5009985;28;20209;-55
2023/05/31 05:51:47;;;;;;;3.40;3.10;;;20.60;50.90;21.30;101585.00;;;;5011421;28;20283;-55
2023/05/31 05:54:13;;;;;;;2.80;2.60;;;20.60;50.90;21.30;101585.00;;;;5009833;28;20185;-56
2023/05/31 05:56:39;;;;;;;3.70;2.87;;;20.70;51.00;21.30;101520.00;;;;5008722;28;20830;-56
2023/05/31 05:59:04;;;;;;;3.20;2.90;;;20.70;51.00;21.30;101585.00;;;;5009739;28;20205;-54
2023/05/31 06:01:30;;;;;;;3.50;3.20;;;20.70;51.20;21.30;101590.00;;;;5009925;28;20186;-54
2023/05/31 06:03:56;;;;;;;3.20;2.90;;;20.70;51.00;21.30;101585.00;;;;5008242;28;20183;-55
2023/05/31 06:06:22;;;;;;;3.00;2.80;;;20.70;51.10;21.30;101589.00;;;;5009196;28;20289;-56
2023/05/31 06:08:47;;;;;;;3.00;2.80;;;20.70;51.10;21.30;101591.00;;;;5008539;28;20199;-55
2023/05/31 06:11:15;;;;;;;3.47;3.17;;;20.70;51.00;21.30;101585.00;;;;5006995;28;20268;-54
2023/05/31 06:13:43;;;;;;;3.13;2.87;;;20.70;51.00;21.30;101578.00;;;;5008273;28;20200;-53
2023/05/31 06:16:08;;;;;;;3.30;3.00;;;20.70;51.10;21.30;101579.00;;;;5008451;28;20547;-54
2023/05/31 06:18:34;;;;;;;3.30;3.00;;;20.70;51.00;21.30;101592.00;;;;5009771;28;20175;-55
2023/05/31 06:21:00;;;;;;;4.97;3.30;;;20.80;51.20;21.30;101579.00;;;;5008457;28;20183;-54
2023/05/31 06:23:26;;;;;;;3.20;2.90;;;20.80;51.30;21.30;101588.00;;;;5009177;28;20200;-53
2023/05/31 06:25:52;;;;;;;3.30;2.70;;;20.80;51.20;21.30;101592.00;;;;4993533;28;20605;-54
2023/05/31 06:28:18;;;;;;;3.43;3.00;;;20.70;51.10;21.30;101582.00;;;;5009590;28;20190;-54
2023/05/31 06:30:44;;;;;;;3.83;3.10;;;20.80;51.10;21.30;101580.00;;;;5009910;28;20269;-55
2023/05/31 06:33:09;;;;;;;3.40;3.10;;;20.80;51.10;21.30;101589.00;;;;5009332;28;20259;-54
2023/05/31 06:35:35;;;;;;;3.73;2.90;;;20.80;51.30;21.30;101585.00;;;;5009595;28;20195;-54
2023/05/31 06:38:03;;;;;;;3.83;3.00;;;20.80;51.30;21.30;101579.00;;;;5009851;28;20201;-55
2023/05/31 06:40:29;;;;;;;4.20;3.10;;;20.70;51.30;21.30;101579.00;;;;5006657;28;20904;-54
2023/05/31 06:42:55;;;;;;;5.50;3.43;;;20.80;51.40;21.30;101579.00;;;;5008725;28;20179;-55
2023/05/31 06:45:20;;;;;;;4.13;3.30;;;20.70;51.40;21.30;101579.00;;;;5008201;28;20186;-55
2023/05/31 06:47:46;;;;;;;3.30;3.03;;;20.70;51.60;21.30;101569.00;;;;5014756;28;20218;-54
2023/05/31 06:50:12;;;;;;;3.50;3.20;;;20.80;51.50;21.30;101576.00;;;;5006647;28;20730;-54
2023/05/31 06:52:39;;;;;;;3.23;2.87;;;20.70;51.50;21.30;101577.00;;;;5010568;28;20186;-55
2023/05/31 06:55:06;;;;;;;3.20;2.90;;;20.80;51.60;21.40;101580.00;;;;5009102;28;20185;-55
2023/05/31 06:57:32;;;;;;;4.30;3.30;;;20.70;51.60;21.40;101577.00;;;;5008796;28;20216;-54
2023/05/31 06:59:57;;;;;;;3.70;3.20;;;20.80;51.60;21.40;101571.00;;;;5013311;28;20833;-54
2023/05/31 07:02:25;;;;;;;5.23;2.97;;;20.70;51.60;21.40;101581.00;;;;5009040;28;20207;-55
2023/05/31 07:04:51;;;;;;;3.27;2.77;;;20.80;51.70;21.40;101582.00;;;;5008816;28;20187;-55
2023/05/31 07:07:17;;;;;;;3.90;3.30;;;20.80;51.60;21.40;101579.00;;;;5012153;28;20279;-54
2023/05/31 07:09:43;;;;;;;4.17;3.00;;;20.80;51.60;21.40;101585.00;;;;5012994;28;20291;-55
2023/05/31 07:12:09;;;;;;;3.30;2.80;;;20.80;51.50;21.40;101586.00;;;;5011335;28;20184;-55
2023/05/31 07:14:35;;;;;;;4.23;2.97;;;20.80;51.50;21.40;101592.00;;;;5012786;28;20206;-54
2023/05/31 07:17:01;;;;;;;3.43;2.80;;;20.80;51.50;21.40;101586.00;;;;5012414;28;20198;-55
2023/05/31 07:19:28;;;;;;;3.17;2.87;;;20.80;51.40;21.50;101578.00;;;;5012666;28;20211;-55
2023/05/31 07:21:54;;;;;;;3.30;2.90;;;20.80;51.40;21.50;101576.00;;;;5013068;28;20190;-55
2023/05/31 07:24:20;;;;;;;5.40;3.00;;;20.70;51.20;21.40;101570.00;;;;5013370;28;20277;-56
2023/05/31 07:26:46;;;;;;;4.37;3.20;;;20.80;51.30;21.50;101574.00;;;;5012652;28;20572;-50
2023/05/31 07:29:12;;;;;;;5.17;2.90;;;20.80;51.40;21.50;101585.00;;;;5012647;28;20204;-50
2023/05/31 07:31:38;;;;;;;4.37;2.90;;;20.80;51.10;21.50;101570.00;;;;5011621;28;20174;-50
2023/05/31 07:34:03;;;;;;;4.83;2.97;;;20.80;51.10;21.50;101579.00;;;;5012279;28;20176;-51
2023/05/31 07:36:30;;;;;;;4.23;3.00;;;20.80;51.10;21.50;101574.00;;;;5013367;28;20183;-50
2023/05/31 07:38:55;;;;;;;5.57;2.90;;;20.80;50.90;21.50;101569.00;;;;5012234;28;20213;-50
2023/05/31 07:41:21;;;;;;;3.80;2.80;;;20.80;51.00;21.50;101566.00;;;;5012251;28;20194;-51
2023/05/31 07:43:47;;;;;;;4.07;2.87;;;20.80;50.90;21.50;101568.00;;;;5012058;28;20256;-50
2023/05/31 07:46:12;;;;;;;3.17;2.87;;;20.80;50.90;21.50;101571.00;;;;5012049;28;20183;-50
2023/05/31 07:48:38;;;;;;;3.87;2.70;;;20.80;50.50;21.50;101575.00;;;;5011750;28;20233;-50
2023/05/31 07:51:04;;;;;;;2.90;2.70;;;20.80;49.60;21.30;101575.00;;;;5012374;28;20209;-50
2023/05/31 07:53:30;;;;;;;3.83;3.00;;;20.80;49.90;21.50;101579.00;;;;5012715;28;20205;-49
2023/05/31 07:55:56;;;;;;;4.13;3.00;;;20.80;49.90;21.50;101563.00;;;;5012937;28;20623;-50
2023/05/31 07:58:22;;;;;;;5.33;2.90;;;20.80;49.40;21.50;101576.00;;;;5013263;28;20188;-50
2023/05/31 08:00:49;;;;;;;3.53;2.90;;;20.80;48.10;21.50;101572.00;;;;5012978;28;20224;-50
2023/05/31 08:03:15;;;;;;;3.10;2.70;;;20.80;48.70;21.50;101576.00;;;;5012243;28;20187;-49
2023/05/31 08:05:41;;;;;;;2.83;2.53;;;20.80;47.70;21.50;101572.00;;;;5012134;28;20668;-50
2023/05/31 08:08:07;;;;;;;3.03;2.50;;;20.80;48.60;21.50;101555.00;;;;5012006;28;20650;-50
2023/05/31 08:10:32;;;;;;;4.53;2.90;;;20.80;48.70;21.50;101568.00;;;;5011345;28;20200;-50
2023/05/31 08:12:58;;;;;;;4.20;2.93;;;20.80;48.90;21.50;101575.00;;;;5011316;28;20172;-50
2023/05/31 08:15:24;;;;;;;3.43;2.60;;;20.80;49.00;21.50;101569.00;;;;5013519;28;20186;-50
2023/05/31 08:17:50;;;;;;;3.33;2.67;;;20.80;48.10;21.50;101568.00;;;;5011700;28;20191;-50
2023/05/31 08:20:16;;;;;;;4.20;2.80;;;20.80;47.60;21.50;101561.00;;;;5011776;28;20226;-52
2023/05/31 08:22:44;;;;;;;3.33;2.70;;;20.80;47.90;21.50;101562.00;;;;5012213;28;20245;-50
2023/05/31 08:25:12;;;;;;;3.33;2.80;;;20.80;48.50;21.60;101570.00;;;;5013683;28;20195;-49
2023/05/31 08:27:42;;;;;;;2.97;2.67;;;20.80;48.90;21.60;101558.00;;;;5017543;28;20210;-51
2023/05/31 08:30:09;;;;;;;3.97;2.80;;;20.90;49.00;21.60;101554.00;;;;5012057;28;20207;-51
2023/05/31 08:32:35;;;;;;;3.93;2.80;;;20.80;48.80;21.60;101558.00;;;;5012282;28;20190;-51
2023/05/31 08:35:02;;;;;;;4.47;2.90;;;20.90;48.80;21.60;101548.00;;;;5011891;28;20179;-50
2023/05/31 08:37:27;;;;;;;3.33;2.60;;;20.90;47.70;21.60;101552.00;;;;5011956;28;20833;-50
2023/05/31 08:39:53;;;;;;;3.50;2.80;;;20.90;48.20;21.60;101554.00;;;;5014132;28;20203;-50
2023/05/31 08:42:28;;;;;;;2.97;2.60;;;20.90;47.00;21.60;101544.00;;;;5015880;28;20193;-50
2023/05/31 08:44:54;;;;;;;2.93;2.63;;;20.90;47.50;21.60;101545.00;;;;4995084;28;20183;-50
2023/05/31 08:47:37;;;;;;;3.00;2.60;;;20.90;48.00;21.60;101558.00;;;;4994466;28;20633;-50
2023/05/31 08:50:03;;;;;;;3.63;2.90;;;20.90;48.20;21.60;101547.00;;;;4994815;28;20238;-49
2023/05/31 08:52:31;;;;;;;2.73;2.53;;;20.90;48.20;21.60;101540.00;;;;5011593;28;20186;-51
2023/05/31 08:54:57;;;;;;;5.20;2.90;;;20.90;47.50;21.60;101542.00;;;;5009876;28;20180;-50
2023/05/31 08:57:22;;;;;;;3.00;2.70;;;20.90;48.00;21.70;101529.00;;;;5011250;28;20245;-51
2023/05/31 08:59:48;;;;;;;3.30;3.00;;;20.90;47.10;21.70;101548.00;;;;4993638;28;20260;-51
2023/05/31 09:02:15;;;;;;;4.27;2.70;;;20.90;48.20;21.70;101541.00;;;;4993516;28;20196;-50
2023/05/31 09:04:41;;;;;;;4.47;2.80;;;20.90;48.60;21.70;101530.00;;;;4993741;28;20645;-50
2023/05/31 09:07:06;;;;;;;3.50;2.60;;;21.00;47.40;21.70;101536.00;;;;4993429;28;20313;-49
2023/05/31 09:09:32;;;;;;;3.43;2.80;;;21.00;46.60;21.70;101521.00;;;;5009351;28;20206;-50
2023/05/31 09:11:58;;;;;;;3.00;2.70;;;21.00;47.20;21.70;101536.00;;;;5011044;28;20183;-50
2023/05/31 09:14:24;;;;;;;3.33;2.60;;;21.00;46.10;21.70;101545.00;;;;5010508;28;20197;-50
2023/05/31 09:16:50;;;;;;;3.67;2.60;;;21.00;47.50;21.80;101531.00;;;;5009296;28;20567;-50
2023/05/31 09:19:16;;;;;;;3.17;2.63;;;21.00;47.50;21.80;101525.00;;;;5010730;28;20241;-49
2023/05/31 09:21:44;;;;;;;5.30;2.83;;;21.00;47.30;21.80;101533.00;;;;5010870;28;20696;-50
2023/05/31 09:24:10;;;;;;;2.97;2.50;;;21.00;47.20;21.80;101528.00;;;;5009652;28;20551;-49
2023/05/31 09:26:50;;;;;;;3.93;2.70;;;21.00;47.90;21.80;101524.00;;;;5010873;28;20290;-50
2023/05/31 09:29:17;;;;;;;4.37;2.80;;;21.10;48.00;21.80;101521.00;;;;5009166;28;20913;-49
2023/05/31 09:31:44;;;;;;;3.27;2.60;;;21.10;46.70;21.80;101447.00;;;;5009972;28;20185;-51
2023/05/31 09:34:27;;;;;;;3.80;2.80;;;21.10;47.30;21.90;101511.00;;;;5010579;28;20191;-50
2023/05/31 09:36:58;;;;;;;3.60;2.57;;;21.10;46.60;21.90;101522.00;;;;5011088;28;20327;-52
2023/05/31 09:39:24;;;;;;;4.50;3.10;;;21.20;46.80;21.90;101514.00;;;;5010896;28;20209;-50
2023/05/31 09:41:50;;;;;;;3.13;2.70;;;21.20;46.70;21.90;101508.00;;;;5010761;28;20193;-49
2023/05/31 09:44:16;;;;;;;4.37;2.80;;;21.10;46.90;21.90;101515.00;;;;5010292;28;20566;-51
2023/05/31 09:46:44;;;;;;;3.77;2.87;;;21.20;45.30;22.00;101494.00;;;;5010344;28;20237;-52
2023/05/31 09:49:10;;;;;;;4.37;2.90;;;21.20;45.90;22.00;101508.00;;;;5010060;28;20584;-51
2023/05/31 09:51:36;;;;;;;3.77;2.90;;;21.20;45.70;22.00;101497.00;;;;4976754;28;20262;-51
2023/05/31 09:54:14;;;;;;;3.47;2.80;;;21.30;46.50;22.00;101491.00;;;;5010593;28;20203;-50
2023/05/31 09:56:41;;;;;;;3.20;2.60;;;21.30;46.80;22.00;101495.00;;;;5006668;28;20614;-51
2023/05/31 09:59:07;;;;;;;4.63;2.80;;;21.30;47.70;22.10;101493.00;;;;5011342;28;20223;-49
2023/05/31 10:01:33;;;;;;;4.30;2.67;;;21.30;48.00;22.10;101494.00;;;;5011704;28;20650;-50
2023/05/31 10:03:59;;;;;;;2.77;2.33;;;21.30;48.00;22.10;101487.00;;;;5009467;28;20195;-50
2023/05/31 10:06:25;;;;;;;3.50;2.70;;;21.40;48.40;22.10;101493.00;;;;5008642;28;20210;-50
2023/05/31 10:08:51;;;;;;;5.10;2.70;;;21.40;46.00;22.10;101479.00;;;;5009956;28;20209;-50
2023/05/31 10:11:21;;;;;;;7.57;2.80;;;21.30;46.60;22.10;101484.00;;;;5009497;28;20666;-49
2023/05/31 10:13:48;;;;;;;3.90;2.80;;;21.40;46.40;22.20;101464.00;;;;4992902;28;20219;-50
2023/05/31 10:16:15;;;;;;;6.50;2.70;;;21.40;46.90;22.20;101484.00;;;;4992179;28;20729;-52
2023/05/31 10:18:45;;;;;;;4.93;3.00;;;21.40;46.50;22.20;101482.00;;;;4992410;28;20715;-51
2023/05/31 10:21:20;;;;;;;5.97;2.90;;;21.40;47.50;22.20;101475.00;;;;5008254;28;20263;-51
2023/05/31 10:23:54;;;;;;;4.07;2.70;;;21.50;47.00;22.20;101477.00;;;;5007153;28;20195;-51
2023/05/31 10:26:20;;;;;;;3.40;2.77;;;21.40;46.10;22.30;101475.00;;;;4993131;28;20187;-50
2023/05/31 10:29:14;;;;;;;2.77;2.47;;;21.50;46.00;22.30;101462.00;;;;5011559;28;20199;-52
2023/05/31 10:31:50;;;;;;;3.20;2.73;;;21.50;45.60;22.30;101459.00;;;;5012723;28;20241;-51
2023/05/31 10:34:24;;;;;;;3.73;2.90;;;21.50;47.00;22.30;101457.00;;;;5008786;28;20206;-51
2023/05/31 10:36:51;;;;;;;3.80;2.70;;;21.50;45.60;22.30;101455.00;;;;5009518;28;20194;-50
2023/05/31 10:39:31;;;;;;;4.43;2.90;;;21.50;44.60;22.40;101450.00;;;;5010540;28;20207;-51
2023/05/31 10:42:29;;;;;;;4.37;2.80;;;21.60;43.80;22.40;101439.00;;;;5010155;28;20669;-51
2023/05/31 10:45:21;;;;;;;3.53;2.50;;;21.60;46.20;22.40;101448.00;;;;4993570;28;20179;-50
2023/05/31 10:48:26;;;;;;;3.63;2.80;;;21.60;47.70;22.40;101464.00;;;;5004744;28;20289;-51